sensor_id;sensor_type;location;lat;lon;timestamp;pressure;altitude;pressure_sealevel;temperature;humidity
40245;BME280;25963;42.694;23.600;2022-09-14T00:00:58;95163.47;;;10.48;97.20
40245;BME280;25963;42.694;23.600;2022-09-14T00:03:23;95168.69;;;10.55;97.29
40245;BME280;25963;42.694;23.600;2022-09-14T00:05:49;95177.13;;;10.64;97.00
40245;BME280;25963;42.694;23.600;2022-09-14T00:08:14;95175.44;;;10.51;97.51
40245;BME280;25963;42.694;23.600;2022-09-14T00:10:45;95165.34;;;10.66;96.97
40245;BME280;25963;42.694;23.600;2022-09-14T00:13:13;95170.69;;;10.60;96.49
40245;BME280;25963;42.694;23.600;2022-09-14T00:15:41;95170.00;;;10.46;97.44
40245;BME280;25963;42.694;23.600;2022-09-14T00:18:10;95171.94;;;10.32;98.70
40245;BME280;25963;42.694;23.600;2022-09-14T00:20:35;95165.69;;;10.26;98.74
40245;BME280;25963;42.694;23.600;2022-09-14T00:23:01;95170.13;;;10.33;98.26
40245;BME280;25963;42.694;23.600;2022-09-14T00:25:27;95161.41;;;10.25;98.33
40245;BME280;25963;42.694;23.600;2022-09-14T00:27:53;95168.13;;;10.21;98.80
40245;BME280;25963;42.694;23.600;2022-09-14T00:30:20;95176.13;;;10.40;98.27
40245;BME280;25963;42.694;23.600;2022-09-14T00:32:45;95170.84;;;10.40;97.84
40245;BME280;25963;42.694;23.600;2022-09-14T00:35:11;95171.94;;;10.32;99.36
40245;BME280;25963;42.694;23.600;2022-09-14T00:37:36;95175.31;;;10.39;98.57
40245;BME280;25963;42.694;23.600;2022-09-14T00:40:04;95171.22;;;10.43;97.65
40245;BME280;25963;42.694;23.600;2022-09-14T00:42:30;95164.53;;;10.16;99.24
40245;BME280;25963;42.694;23.600;2022-09-14T00:45:12;95162.75;;;10.10;99.73
40245;BME280;25963;42.694;23.600;2022-09-14T00:47:38;95154.78;;;9.91;100.00
40245;BME280;25963;42.694;23.600;2022-09-14T00:50:04;95168.69;;;9.98;100.00
40245;BME280;25963;42.694;23.600;2022-09-14T00:52:33;95176.88;;;9.90;100.00
40245;BME280;25963;42.694;23.600;2022-09-14T00:55:03;95175.47;;;9.88;100.00
40245;BME280;25963;42.694;23.600;2022-09-14T00:57:33;95177.38;;;10.05;100.00
40245;BME280;25963;42.694;23.600;2022-09-14T00:59:59;95186.16;;;9.93;100.00
40245;BME280;25963;42.694;23.600;2022-09-14T01:02:26;95174.38;;;9.95;100.00
40245;BME280;25963;42.694;23.600;2022-09-14T01:04:52;95180.88;;;9.99;100.00
40245;BME280;25963;42.694;23.600;2022-09-14T01:07:48;95177.88;;;10.21;99.75
40245;BME280;25963;42.694;23.600;2022-09-14T01:10:28;95188.56;;;10.33;99.07
40245;BME280;25963;42.694;23.600;2022-09-14T01:13:06;95178.25;;;10.24;98.67
40245;BME280;25963;42.694;23.600;2022-09-14T01:18:37;95165.03;;;10.31;99.17
40245;BME280;25963;42.694;23.600;2022-09-14T01:29:43;95174.22;;;10.22;99.87
40245;BME280;25963;42.694;23.600;2022-09-14T01:32:19;95167.75;;;10.18;99.51
40245;BME280;25963;42.694;23.600;2022-09-14T01:40:12;95173.22;;;9.91;100.00
40245;BME280;25963;42.694;23.600;2022-09-14T01:42:40;95171.50;;;10.03;100.00
40245;BME280;25963;42.694;23.600;2022-09-14T01:45:11;95178.63;;;10.03;100.00
40245;BME280;25963;42.694;23.600;2022-09-14T01:47:46;95168.69;;;9.98;100.00
40245;BME280;25963;42.694;23.600;2022-09-14T01:50:27;95176.34;;;10.06;100.00
40245;BME280;25963;42.694;23.600;2022-09-14T01:53:33;95174.34;;;10.02;99.93
40245;BME280;25963;42.694;23.600;2022-09-14T01:56:11;95171.28;;;10.05;99.53
40245;BME280;25963;42.694;23.600;2022-09-14T01:58:45;95173.97;;;9.98;100.00
40245;BME280;25963;42.694;23.600;2022-09-14T02:01:18;95178.09;;;9.88;100.00
40245;BME280;25963;42.694;23.600;2022-09-14T02:03:55;95173.88;;;9.80;100.00
40245;BME280;25963;42.694;23.600;2022-09-14T02:06:27;95176.59;;;9.98;100.00
40245;BME280;25963;42.694;23.600;2022-09-14T02:08:55;95176.44;;;9.93;100.00
40245;BME280;25963;42.694;23.600;2022-09-14T02:11:21;95167.94;;;9.91;100.00
40245;BME280;25963;42.694;23.600;2022-09-14T02:13:47;95177.88;;;9.89;100.00
40245;BME280;25963;42.694;23.600;2022-09-14T02:16:12;95176.47;;;9.87;100.00
40245;BME280;25963;42.694;23.600;2022-09-14T02:18:38;95182.28;;;9.95;100.00
40245;BME280;25963;42.694;23.600;2022-09-14T02:21:13;95184.09;;;10.01;100.00
40245;BME280;25963;42.694;23.600;2022-09-14T02:23:40;95176.41;;;10.00;100.00
40245;BME280;25963;42.694;23.600;2022-09-14T02:26:06;95174.81;;;9.92;100.00
40245;BME280;25963;42.694;23.600;2022-09-14T02:28:32;95175.63;;;9.93;100.00
40245;BME280;25963;42.694;23.600;2022-09-14T02:31:20;95173.41;;;9.90;100.00
40245;BME280;25963;42.694;23.600;2022-09-14T02:34:02;95172.19;;;9.92;100.00
40245;BME280;25963;42.694;23.600;2022-09-14T02:39:20;95173.38;;;9.65;100.00
40245;BME280;25963;42.694;23.600;2022-09-14T02:42:19;95170.97;;;9.56;100.00
40245;BME280;25963;42.694;23.600;2022-09-14T02:47:29;95175.50;;;9.43;100.00
40245;BME280;25963;42.694;23.600;2022-09-14T02:53:14;95190.13;;;9.32;100.00
40245;BME280;25963;42.694;23.600;2022-09-14T02:55:46;95192.50;;;9.47;100.00
40245;BME280;25963;42.694;23.600;2022-09-14T02:58:13;95195.44;;;9.19;100.00
40245;BME280;25963;42.694;23.600;2022-09-14T03:00:44;95183.66;;;9.28;100.00
40245;BME280;25963;42.694;23.600;2022-09-14T03:03:11;95183.69;;;9.14;100.00
40245;BME280;25963;42.694;23.600;2022-09-14T03:05:37;95184.97;;;8.99;100.00
40245;BME280;25963;42.694;23.600;2022-09-14T03:08:03;95191.97;;;9.18;100.00
40245;BME280;25963;42.694;23.600;2022-09-14T03:10:29;95186.69;;;9.31;100.00
40245;BME280;25963;42.694;23.600;2022-09-14T03:12:55;95181.97;;;9.47;100.00
40245;BME280;25963;42.694;23.600;2022-09-14T03:15:21;95181.06;;;9.14;100.00
40245;BME280;25963;42.694;23.600;2022-09-14T03:17:47;95184.88;;;9.25;100.00
40245;BME280;25963;42.694;23.600;2022-09-14T03:20:18;95179.22;;;9.15;100.00
40245;BME280;25963;42.694;23.600;2022-09-14T03:22:45;95181.88;;;9.22;100.00
40245;BME280;25963;42.694;23.600;2022-09-14T03:25:10;95187.72;;;9.24;100.00
40245;BME280;25963;42.694;23.600;2022-09-14T03:27:36;95182.53;;;9.04;100.00
40245;BME280;25963;42.694;23.600;2022-09-14T03:30:03;95179.66;;;9.19;100.00
40245;BME280;25963;42.694;23.600;2022-09-14T03:32:29;95188.22;;;9.01;100.00
40245;BME280;25963;42.694;23.600;2022-09-14T03:34:54;95188.78;;;9.03;100.00
40245;BME280;25963;42.694;23.600;2022-09-14T03:37:21;95198.94;;;8.93;100.00
40245;BME280;25963;42.694;23.600;2022-09-14T03:39:47;95202.19;;;8.88;100.00
40245;BME280;25963;42.694;23.600;2022-09-14T03:42:12;95195.50;;;8.92;100.00
40245;BME280;25963;42.694;23.600;2022-09-14T03:44:37;95201.97;;;8.96;100.00
40245;BME280;25963;42.694;23.600;2022-09-14T03:47:03;95205.63;;;8.95;100.00
40245;BME280;25963;42.694;23.600;2022-09-14T03:49:28;95188.25;;;8.81;100.00
40245;BME280;25963;42.694;23.600;2022-09-14T03:51:54;95189.84;;;8.88;100.00
40245;BME280;25963;42.694;23.600;2022-09-14T03:54:20;95194.72;;;8.91;100.00
40245;BME280;25963;42.694;23.600;2022-09-14T03:56:45;95197.16;;;8.80;100.00
40245;BME280;25963;42.694;23.600;2022-09-14T03:59:10;95191.91;;;8.80;100.00
40245;BME280;25963;42.694;23.600;2022-09-14T04:01:36;95202.78;;;8.90;100.00
40245;BME280;25963;42.694;23.600;2022-09-14T04:04:02;95193.03;;;8.97;100.00
40245;BME280;25963;42.694;23.600;2022-09-14T04:06:28;95192.63;;;9.07;100.00
40245;BME280;25963;42.694;23.600;2022-09-14T04:08:53;95191.44;;;9.09;100.00
40245;BME280;25963;42.694;23.600;2022-09-14T04:11:23;95195.84;;;9.16;100.00
40245;BME280;25963;42.694;23.600;2022-09-14T04:13:50;95193.25;;;9.02;100.00
40245;BME280;25963;42.694;23.600;2022-09-14T04:16:17;95202.75;;;9.03;100.00
40245;BME280;25963;42.694;23.600;2022-09-14T04:18:44;95199.47;;;9.14;100.00
40245;BME280;25963;42.694;23.600;2022-09-14T04:21:14;95197.47;;;9.03;100.00
40245;BME280;25963;42.694;23.600;2022-09-14T04:23:40;95195.47;;;9.05;100.00
40245;BME280;25963;42.694;23.600;2022-09-14T04:26:17;95197.06;;;9.20;100.00
40245;BME280;25963;42.694;23.600;2022-09-14T04:28:43;95194.19;;;9.28;100.00
40245;BME280;25963;42.694;23.600;2022-09-14T04:31:10;95195.00;;;9.28;100.00
40245;BME280;25963;42.694;23.600;2022-09-14T04:33:37;95193.13;;;9.35;100.00
40245;BME280;25963;42.694;23.600;2022-09-14T04:36:08;95198.06;;;9.19;100.00
40245;BME280;25963;42.694;23.600;2022-09-14T04:38:34;95203.50;;;9.24;100.00
40245;BME280;25963;42.694;23.600;2022-09-14T04:41:04;95197.56;;;9.48;100.00
40245;BME280;25963;42.694;23.600;2022-09-14T04:43:30;95206.28;;;10.19;100.00
40245;BME280;25963;42.694;23.600;2022-09-14T04:46:01;95203.69;;;11.31;98.26
40245;BME280;25963;42.694;23.600;2022-09-14T04:48:27;95207.28;;;12.57;89.41
40245;BME280;25963;42.694;23.600;2022-09-14T04:50:53;95196.09;;;13.78;80.69
40245;BME280;25963;42.694;23.600;2022-09-14T04:53:18;95195.31;;;14.68;75.08
40245;BME280;25963;42.694;23.600;2022-09-14T04:55:43;95198.78;;;15.46;69.98
40245;BME280;25963;42.694;23.600;2022-09-14T04:58:09;95208.31;;;16.35;65.65
40245;BME280;25963;42.694;23.600;2022-09-14T05:00:35;95192.66;;;17.03;63.09
40245;BME280;25963;42.694;23.600;2022-09-14T05:03:04;95191.41;;;17.74;59.88
40245;BME280;25963;42.694;23.600;2022-09-14T05:05:33;95188.63;;;18.27;57.49
40245;BME280;25963;42.694;23.600;2022-09-14T05:07:59;95179.34;;;18.85;55.63
40245;BME280;25963;42.694;23.600;2022-09-14T05:10:24;95184.31;;;19.38;53.81
40245;BME280;25963;42.694;23.600;2022-09-14T05:12:50;95186.34;;;19.77;51.89
40245;BME280;25963;42.694;23.600;2022-09-14T05:15:15;95192.28;;;20.23;50.72
40245;BME280;25963;42.694;23.600;2022-09-14T05:17:40;95198.66;;;20.72;48.98
40245;BME280;25963;42.694;23.600;2022-09-14T05:20:06;95192.41;;;20.82;48.61
40245;BME280;25963;42.694;23.600;2022-09-14T05:22:32;95201.31;;;20.77;48.94
40245;BME280;25963;42.694;23.600;2022-09-14T05:24:57;95205.59;;;20.78;48.27
40245;BME280;25963;42.694;23.600;2022-09-14T05:27:23;95199.53;;;20.96;48.01
40245;BME280;25963;42.694;23.600;2022-09-14T05:29:48;95196.66;;;20.88;47.80
40245;BME280;25963;42.694;23.600;2022-09-14T05:32:13;95204.75;;;21.12;48.10
40245;BME280;25963;42.694;23.600;2022-09-14T05:34:39;95207.84;;;20.66;50.46
40245;BME280;25963;42.694;23.600;2022-09-14T05:37:04;95207.22;;;21.08;50.36
40245;BME280;25963;42.694;23.600;2022-09-14T05:39:30;95208.56;;;20.32;50.88
40245;BME280;25963;42.694;23.600;2022-09-14T05:41:55;95210.66;;;19.96;52.84
40245;BME280;25963;42.694;23.600;2022-09-14T05:44:20;95209.47;;;20.17;51.04
40245;BME280;25963;42.694;23.600;2022-09-14T05:46:46;95209.16;;;20.24;51.19
40245;BME280;25963;42.694;23.600;2022-09-14T05:49:11;95218.59;;;20.16;51.90
40245;BME280;25963;42.694;23.600;2022-09-14T05:51:37;95221.97;;;20.32;51.51
40245;BME280;25963;42.694;23.600;2022-09-14T05:54:02;95224.50;;;20.58;53.50
40245;BME280;25963;42.694;23.600;2022-09-14T05:56:33;95228.31;;;20.86;50.58
40245;BME280;25963;42.694;23.600;2022-09-14T05:58:58;95231.41;;;21.03;52.12
40245;BME280;25963;42.694;23.600;2022-09-14T06:01:27;95232.53;;;20.97;51.24
40245;BME280;25963;42.694;23.600;2022-09-14T06:03:58;95225.28;;;20.97;51.20
40245;BME280;25963;42.694;23.600;2022-09-14T06:06:27;95224.09;;;21.09;52.13
40245;BME280;25963;42.694;23.600;2022-09-14T06:08:54;95222.00;;;20.22;48.45
40245;BME280;25963;42.694;23.600;2022-09-14T06:11:25;95224.06;;;20.40;48.60
40245;BME280;25963;42.694;23.600;2022-09-14T06:13:53;95226.47;;;20.37;55.85
40245;BME280;25963;42.694;23.600;2022-09-14T06:16:20;95219.78;;;20.79;53.30
40245;BME280;25963;42.694;23.600;2022-09-14T06:18:46;95224.84;;;20.85;52.56
40245;BME280;25963;42.694;23.600;2022-09-14T06:21:13;95220.75;;;20.93;54.99
40245;BME280;25963;42.694;23.600;2022-09-14T06:23:43;95223.94;;;20.61;54.48
40245;BME280;25963;42.694;23.600;2022-09-14T06:26:09;95228.00;;;20.92;53.13
40245;BME280;25963;42.694;23.600;2022-09-14T06:28:35;95221.09;;;20.86;54.55
40245;BME280;25963;42.694;23.600;2022-09-14T06:31:01;95220.47;;;20.60;53.19
40245;BME280;25963;42.694;23.600;2022-09-14T06:33:32;95227.72;;;20.94;50.63
40245;BME280;25963;42.694;23.600;2022-09-14T06:36:00;95221.31;;;20.50;54.60
40245;BME280;25963;42.694;23.600;2022-09-14T06:38:26;95217.97;;;20.74;51.70
40245;BME280;25963;42.694;23.600;2022-09-14T06:41:00;95227.56;;;20.80;49.74
40245;BME280;25963;42.694;23.600;2022-09-14T06:43:28;95221.66;;;20.78;51.94
40245;BME280;25963;42.694;23.600;2022-09-14T06:46:24;95211.16;;;20.52;57.21
40245;BME280;25963;42.694;23.600;2022-09-14T06:53:57;95218.72;;;20.35;54.89
40245;BME280;25963;42.694;23.600;2022-09-14T06:56:31;95217.03;;;20.49;57.20
40245;BME280;25963;42.694;23.600;2022-09-14T06:58:57;95209.09;;;20.34;55.53
40245;BME280;25963;42.694;23.600;2022-09-14T07:01:24;95217.25;;;20.14;59.88
40245;BME280;25963;42.694;23.600;2022-09-14T07:03:50;95218.31;;;20.13;55.45
40245;BME280;25963;42.694;23.600;2022-09-14T07:06:20;95214.50;;;20.24;61.30
40245;BME280;25963;42.694;23.600;2022-09-14T07:08:47;95220.84;;;20.38;62.84
40245;BME280;25963;42.694;23.600;2022-09-14T07:11:14;95219.19;;;20.47;56.02
40245;BME280;25963;42.694;23.600;2022-09-14T07:13:41;95209.59;;;20.36;57.10
40245;BME280;25963;42.694;23.600;2022-09-14T07:16:07;95218.53;;;20.21;59.46
40245;BME280;25963;42.694;23.600;2022-09-14T07:18:33;95214.25;;;20.25;62.96
40245;BME280;25963;42.694;23.600;2022-09-14T07:21:12;95221.09;;;20.42;57.02
40245;BME280;25963;42.694;23.600;2022-09-14T07:23:40;95213.44;;;20.69;54.55
40245;BME280;25963;42.694;23.600;2022-09-14T07:26:17;95217.16;;;20.73;58.25
40245;BME280;25963;42.694;23.600;2022-09-14T07:28:45;95210.13;;;20.83;57.54
40245;BME280;25963;42.694;23.600;2022-09-14T07:31:29;95213.06;;;20.81;56.09
40245;BME280;25963;42.694;23.600;2022-09-14T07:33:57;95208.47;;;20.47;55.59
40245;BME280;25963;42.694;23.600;2022-09-14T07:36:24;95211.28;;;20.71;54.51
40245;BME280;25963;42.694;23.600;2022-09-14T07:38:50;95205.72;;;20.63;57.88
40245;BME280;25963;42.694;23.600;2022-09-14T07:41:16;95200.59;;;20.66;60.73
40245;BME280;25963;42.694;23.600;2022-09-14T07:43:42;95199.03;;;20.94;54.53
40245;BME280;25963;42.694;23.600;2022-09-14T07:46:08;95199.41;;;20.83;59.78
40245;BME280;25963;42.694;23.600;2022-09-14T07:48:34;95200.09;;;20.93;64.17
40245;BME280;25963;42.694;23.600;2022-09-14T07:53:26;95201.69;;;21.53;53.54
40245;BME280;25963;42.694;23.600;2022-09-14T07:55:51;95199.75;;;21.82;53.83
40245;BME280;25963;42.694;23.600;2022-09-14T07:58:17;95193.78;;;21.67;54.38
40245;BME280;25963;42.694;23.600;2022-09-14T08:00:42;95204.38;;;21.77;50.44
40245;BME280;25963;42.694;23.600;2022-09-14T08:03:08;95202.03;;;22.13;51.80
40245;BME280;25963;42.694;23.600;2022-09-14T08:05:34;95209.00;;;21.71;51.43
40245;BME280;25963;42.694;23.600;2022-09-14T08:07:59;95202.72;;;22.05;55.60
40245;BME280;25963;42.694;23.600;2022-09-14T08:10:26;95201.03;;;21.66;54.35
40245;BME280;25963;42.694;23.600;2022-09-14T08:12:52;95203.53;;;21.81;48.43
40245;BME280;25963;42.694;23.600;2022-09-14T08:15:19;95198.53;;;21.94;52.31
40245;BME280;25963;42.694;23.600;2022-09-14T08:17:45;95192.97;;;22.09;52.82
40245;BME280;25963;42.694;23.600;2022-09-14T08:20:10;95203.47;;;21.09;48.77
40245;BME280;25963;42.694;23.600;2022-09-14T08:22:36;95190.31;;;21.08;50.88
40245;BME280;25963;42.694;23.600;2022-09-14T08:25:01;95186.97;;;21.74;56.33
40245;BME280;25963;42.694;23.600;2022-09-14T08:27:27;95179.56;;;21.66;49.03
40245;BME280;25963;42.694;23.600;2022-09-14T08:29:52;95177.63;;;21.91;56.94
40245;BME280;25963;42.694;23.600;2022-09-14T08:32:18;95176.72;;;22.19;51.64
40245;BME280;25963;42.694;23.600;2022-09-14T08:34:45;95172.81;;;22.30;46.80
40245;BME280;25963;42.694;23.600;2022-09-14T08:37:11;95167.81;;;22.62;53.63
40245;BME280;25963;42.694;23.600;2022-09-14T08:39:38;95162.88;;;22.83;47.16
40245;BME280;25963;42.694;23.600;2022-09-14T08:42:03;95168.34;;;23.10;55.11
40245;BME280;25963;42.694;23.600;2022-09-14T08:44:48;95177.88;;;23.49;53.30
40245;BME280;25963;42.694;23.600;2022-09-14T08:47:25;95162.41;;;23.41;48.45
40245;BME280;25963;42.694;23.600;2022-09-14T08:52:42;95166.00;;;23.91;47.24
40245;BME280;25963;42.694;23.600;2022-09-14T08:55:41;95154.63;;;24.08;47.28
40245;BME280;25963;42.694;23.600;2022-09-14T09:00:43;95161.13;;;24.66;44.36
40245;BME280;25963;42.694;23.600;2022-09-14T09:09:08;95162.22;;;23.92;42.47
40245;BME280;25963;42.694;23.600;2022-09-14T09:11:40;95141.84;;;24.00;50.85
40245;BME280;25963;42.694;23.600;2022-09-14T09:14:23;95151.25;;;24.62;48.29
40245;BME280;25963;42.694;23.600;2022-09-14T09:16:52;95150.28;;;24.80;45.78
40245;BME280;25963;42.694;23.600;2022-09-14T09:19:29;95152.63;;;24.95;46.97
40245;BME280;25963;42.694;23.600;2022-09-14T09:21:56;95152.28;;;25.19;46.31
40245;BME280;25963;42.694;23.600;2022-09-14T09:24:36;95144.91;;;25.42;42.38
40245;BME280;25963;42.694;23.600;2022-09-14T09:27:14;95142.94;;;25.65;45.66
40245;BME280;25963;42.694;23.600;2022-09-14T09:29:40;95137.47;;;25.88;45.61
40245;BME280;25963;42.694;23.600;2022-09-14T09:32:26;95137.63;;;25.91;45.69
40245;BME280;25963;42.694;23.600;2022-09-14T09:34:51;95129.78;;;25.81;38.92
40245;BME280;25963;42.694;23.600;2022-09-14T09:37:22;95129.50;;;25.83;41.92
40245;BME280;25963;42.694;23.600;2022-09-14T09:39:48;95125.50;;;25.80;42.16
40245;BME280;25963;42.694;23.600;2022-09-14T09:42:25;95137.28;;;25.84;40.46
40245;BME280;25963;42.694;23.600;2022-09-14T09:47:48;95135.13;;;25.55;46.68
40245;BME280;25963;42.694;23.600;2022-09-14T09:50:19;95124.19;;;25.69;40.38
40245;BME280;25963;42.694;23.600;2022-09-14T09:55:20;95119.84;;;26.34;42.82
40245;BME280;25963;42.694;23.600;2022-09-14T09:57:46;95115.25;;;26.43;41.66
40245;BME280;25963;42.694;23.600;2022-09-14T10:00:26;95110.75;;;26.82;40.80
40245;BME280;25963;42.694;23.600;2022-09-14T10:02:53;95111.53;;;27.00;40.79
40245;BME280;25963;42.694;23.600;2022-09-14T10:05:24;95108.97;;;26.95;40.70
40245;BME280;25963;42.694;23.600;2022-09-14T10:10:44;95117.13;;;26.86;37.59
40245;BME280;25963;42.694;23.600;2022-09-14T10:13:33;95115.53;;;26.76;38.52
40245;BME280;25963;42.694;23.600;2022-09-14T10:16:19;95101.84;;;26.90;40.53
40245;BME280;25963;42.694;23.600;2022-09-14T10:18:47;95089.59;;;26.84;38.51
40245;BME280;25963;42.694;23.600;2022-09-14T10:21:15;95089.72;;;26.96;41.90
40245;BME280;25963;42.694;23.600;2022-09-14T10:23:41;95097.03;;;27.04;39.46
40245;BME280;25963;42.694;23.600;2022-09-14T10:28:43;95090.88;;;26.86;38.15
40245;BME280;25963;42.694;23.600;2022-09-14T10:33:50;95073.75;;;27.12;38.82
40245;BME280;25963;42.694;23.600;2022-09-14T10:36:27;95078.03;;;27.22;39.20
40245;BME280;25963;42.694;23.600;2022-09-14T10:39:07;95072.78;;;27.25;39.34
40245;BME280;25963;42.694;23.600;2022-09-14T10:47:27;95077.91;;;27.01;39.54
40245;BME280;25963;42.694;23.600;2022-09-14T11:04:00;95068.66;;;27.49;35.87
40245;BME280;25963;42.694;23.600;2022-09-14T11:06:48;95062.81;;;27.38;35.38
40245;BME280;25963;42.694;23.600;2022-09-14T11:09:22;95060.53;;;27.49;35.37
40245;BME280;25963;42.694;23.600;2022-09-14T11:22:38;95054.25;;;27.27;35.71
40245;BME280;25963;42.694;23.600;2022-09-14T11:25:10;95057.69;;;27.45;37.41
40245;BME280;25963;42.694;23.600;2022-09-14T11:27:42;95059.50;;;27.33;36.32
40245;BME280;25963;42.694;23.600;2022-09-14T11:33:04;95049.28;;;27.68;36.76
40245;BME280;25963;42.694;23.600;2022-09-14T11:36:04;95051.78;;;27.73;34.38
40245;BME280;25963;42.694;23.600;2022-09-14T11:38:29;95041.63;;;27.91;36.39
40245;BME280;25963;42.694;23.600;2022-09-14T11:41:02;95037.00;;;27.70;33.95
40245;BME280;25963;42.694;23.600;2022-09-14T11:43:44;95029.63;;;27.80;34.82
40245;BME280;25963;42.694;23.600;2022-09-14T11:46:16;95037.25;;;27.77;34.99
40245;BME280;25963;42.694;23.600;2022-09-14T11:51:24;95025.47;;;28.03;34.42
40245;BME280;25963;42.694;23.600;2022-09-14T11:53:53;95018.09;;;28.25;33.75
40245;BME280;25963;42.694;23.600;2022-09-14T11:56:22;95018.97;;;27.95;33.03
40245;BME280;25963;42.694;23.600;2022-09-14T11:58:55;95010.09;;;28.07;33.86
40245;BME280;25963;42.694;23.600;2022-09-14T12:01:35;95021.69;;;27.95;33.75
40245;BME280;25963;42.694;23.600;2022-09-14T12:04:09;95016.00;;;27.88;33.78
40245;BME280;25963;42.694;23.600;2022-09-14T12:11:57;95009.44;;;28.10;32.58
40245;BME280;25963;42.694;23.600;2022-09-14T12:17:19;95007.44;;;28.19;28.26
40245;BME280;25963;42.694;23.600;2022-09-14T12:19:47;95005.16;;;28.09;29.23
40245;BME280;25963;42.694;23.600;2022-09-14T12:22:34;95006.97;;;28.17;30.77
40245;BME280;25963;42.694;23.600;2022-09-14T12:27:39;94994.00;;;28.23;29.76
40245;BME280;25963;42.694;23.600;2022-09-14T12:32:59;95001.91;;;27.95;31.77
40245;BME280;25963;42.694;23.600;2022-09-14T12:40:53;95009.03;;;27.79;28.64
40245;BME280;25963;42.694;23.600;2022-09-14T13:04:46;94992.50;;;28.13;30.36
40245;BME280;25963;42.694;23.600;2022-09-14T13:07:16;94993.09;;;28.19;31.89
40245;BME280;25963;42.694;23.600;2022-09-14T13:10:02;95001.34;;;28.22;30.76
40245;BME280;25963;42.694;23.600;2022-09-14T13:12:40;95001.44;;;28.14;29.49
40245;BME280;25963;42.694;23.600;2022-09-14T13:17:55;95000.13;;;28.32;31.87
40245;BME280;25963;42.694;23.600;2022-09-14T13:20:22;95007.94;;;28.34;30.90
40245;BME280;25963;42.694;23.600;2022-09-14T13:22:47;94999.06;;;28.12;31.31
40245;BME280;25963;42.694;23.600;2022-09-14T13:25:36;95015.38;;;28.25;30.67
40245;BME280;25963;42.694;23.600;2022-09-14T13:28:06;95007.91;;;28.21;30.51
40245;BME280;25963;42.694;23.600;2022-09-14T13:30:33;94999.97;;;28.16;32.53
40245;BME280;25963;42.694;23.600;2022-09-14T13:33:00;94997.06;;;28.21;31.58
40245;BME280;25963;42.694;23.600;2022-09-14T13:38:06;94999.56;;;28.39;32.64
40245;BME280;25963;42.694;23.600;2022-09-14T13:40:33;95002.84;;;28.32;31.88
40245;BME280;25963;42.694;23.600;2022-09-14T13:42:59;95003.56;;;28.41;33.04
40245;BME280;25963;42.694;23.600;2022-09-14T13:45:25;95000.22;;;28.23;31.58
40245;BME280;25963;42.694;23.600;2022-09-14T13:47:51;95001.69;;;28.21;33.30
40245;BME280;25963;42.694;23.600;2022-09-14T13:50:18;94999.25;;;28.07;32.31
40245;BME280;25963;42.694;23.600;2022-09-14T13:52:44;94994.97;;;28.06;31.53
40245;BME280;25963;42.694;23.600;2022-09-14T14:01:02;95007.72;;;28.39;32.77
40245;BME280;25963;42.694;23.600;2022-09-14T14:03:40;94998.22;;;28.33;32.89
40245;BME280;25963;42.694;23.600;2022-09-14T14:06:29;94990.66;;;28.05;32.89
40245;BME280;25963;42.694;23.600;2022-09-14T14:09:06;94988.00;;;27.96;32.71
40245;BME280;25963;42.694;23.600;2022-09-14T14:11:40;94989.94;;;27.96;31.76
40245;BME280;25963;42.694;23.600;2022-09-14T14:17:08;94988.25;;;27.91;33.81
40245;BME280;25963;42.694;23.600;2022-09-14T14:19:28;94984.78;;;28.03;33.34
40245;BME280;25963;42.694;23.600;2022-09-14T14:24:38;94971.56;;;28.02;31.95
40245;BME280;25963;42.694;23.600;2022-09-14T14:27:04;94967.44;;;28.16;34.41
40245;BME280;25963;42.694;23.600;2022-09-14T14:29:29;94975.09;;;28.14;33.97
40245;BME280;25963;42.694;23.600;2022-09-14T14:31:55;94965.19;;;28.18;33.07
40245;BME280;25963;42.694;23.600;2022-09-14T14:34:25;94974.31;;;28.14;33.78
40245;BME280;25963;42.694;23.600;2022-09-14T14:36:51;94971.00;;;28.08;33.86
40245;BME280;25963;42.694;23.600;2022-09-14T14:39:22;94968.28;;;28.08;34.80
40245;BME280;25963;42.694;23.600;2022-09-14T14:41:48;94968.97;;;28.05;34.07
40245;BME280;25963;42.694;23.600;2022-09-14T14:44:20;94964.88;;;27.99;33.66
40245;BME280;25963;42.694;23.600;2022-09-14T14:46:47;94970.09;;;28.04;33.33
40245;BME280;25963;42.694;23.600;2022-09-14T14:49:14;94965.94;;;28.07;35.06
40245;BME280;25963;42.694;23.600;2022-09-14T14:51:41;94965.34;;;28.01;33.64
40245;BME280;25963;42.694;23.600;2022-09-14T14:54:08;94958.63;;;27.86;34.67
40245;BME280;25963;42.694;23.600;2022-09-14T14:56:35;94953.31;;;27.90;34.86
40245;BME280;25963;42.694;23.600;2022-09-14T14:59:00;94963.56;;;27.84;34.36
40245;BME280;25963;42.694;23.600;2022-09-14T15:01:26;94955.13;;;27.86;34.34
40245;BME280;25963;42.694;23.600;2022-09-14T15:03:51;94954.09;;;27.69;35.72
40245;BME280;25963;42.694;23.600;2022-09-14T15:06:22;94952.13;;;27.79;32.60
40245;BME280;25963;42.694;23.600;2022-09-14T15:08:54;94952.09;;;27.99;35.19
40245;BME280;25963;42.694;23.600;2022-09-14T15:11:21;94941.44;;;27.82;34.92
40245;BME280;25963;42.694;23.600;2022-09-14T15:13:46;94948.91;;;27.85;34.92
40245;BME280;25963;42.694;23.600;2022-09-14T15:16:13;94942.56;;;27.81;34.82
40245;BME280;25963;42.694;23.600;2022-09-14T15:18:39;94944.19;;;27.73;37.04
40245;BME280;25963;42.694;23.600;2022-09-14T15:21:05;94944.00;;;27.79;35.82
40245;BME280;25963;42.694;23.600;2022-09-14T15:23:31;94928.97;;;27.60;35.95
40245;BME280;25963;42.694;23.600;2022-09-14T15:25:57;94938.97;;;27.47;36.30
40245;BME280;25963;42.694;23.600;2022-09-14T15:28:23;94935.13;;;27.48;36.68
40245;BME280;25963;42.694;23.600;2022-09-14T15:30:48;94928.84;;;27.36;35.71
40245;BME280;25963;42.694;23.600;2022-09-14T15:33:14;94931.19;;;27.16;35.33